Time;durP1;ratioP1;P1;durP2;ratioP2;P2;SDS_P1;SDS_P2;PMS_P1;PMS_P2;Temp;Humidity;BMP_temperature;BMP_pressure;BME280_temperature;BME280_humidity;BME280_pressure;Samples;Min_cycle;Max_cycle;Signal;HPM_P1;HPM_P2
2023/12/09 00:01:33;;;;;;;;;;;;;;;;;;5066690;28;19924;-71
2023/12/09 00:03:59;;;;;;;;;;;;;;;;;;5070051;28;19944;-71
2023/12/09 00:06:25;;;;;;;;;;;;;;;;;;5068229;28;20031;-71
2023/12/09 00:08:51;;;;;;;;;;;;;;;;;;5071679;28;20027;-71
2023/12/09 00:11:17;;;;;;;;;;;;;;;;;;5069327;28;19969;-70
2023/12/09 00:13:43;;;;;;;;;;;;;;;;;;5066461;28;19963;-70
2023/12/09 00:16:09;;;;;;;;;;;;;;;;;;5070698;28;19924;-70
2023/12/09 00:18:35;;;;;;;;;;;;;;;;;;5072049;28;19951;-71
2023/12/09 00:21:01;;;;;;;;;;;;;;;;;;5068641;28;20350;-71
2023/12/09 00:23:27;;;;;;;;;;;;;;;;;;5075501;28;19939;-70
2023/12/09 00:25:53;;;;;;;;;;;;;;;;;;5069965;28;19974;-70
2023/12/09 00:28:19;;;;;;;;;;;;;;;;;;5089018;28;19928;-70
2023/12/09 00:30:45;;;;;;;;;;;;;;;;;;5066117;28;19928;-70
2023/12/09 00:33:10;;;;;;;;;;;;;;;;;;5071697;28;19927;-70
2023/12/09 00:35:36;;;;;;;;;;;;;;;;;;5082867;28;20423;-72
2023/12/09 00:38:02;;;;;;;;;;;;;;;;;;5067637;28;19931;-71
2023/12/09 00:40:28;;;;;;;;;;;;;;;;;;5049905;28;19921;-71
2023/12/09 00:42:54;;;;;;;;;;;;;;;;;;5074289;28;19920;-71
2023/12/09 00:45:21;;;;;;;;;;;;;;;;;;5046734;28;20395;-71
2023/12/09 00:47:47;;;;;;;;;;;;;;;;;;5068061;28;20391;-71
2023/12/09 00:50:12;;;;;;;;;;;;;;;;;;5058794;28;19986;-72
2023/12/09 00:52:38;;;;;;;;;;;;;;;;;;5065835;28;19928;-71
2023/12/09 00:55:04;;;;;;;;;;;;;;;;;;5066368;28;19935;-71
2023/12/09 00:57:30;;;;;;;;;;;;;;;;;;5087120;28;19924;-71
2023/12/09 00:59:56;;;;;;;;;;;;;;;;;;5062274;28;19924;-71
2023/12/09 01:02:22;;;;;;;;;;;;;;;;;;5063858;28;19927;-71
2023/12/09 01:04:48;;;;;;;;;;;;;;;;;;5067993;28;19978;-71
2023/12/09 01:07:14;;;;;;;;;;;;;;;;;;5065252;28;19924;-71
2023/12/09 01:09:40;;;;;;;;;;;;;;;;;;5071286;28;19966;-71
2023/12/09 01:12:06;;;;;;;;;;;;;;;;;;5069951;28;19924;-71
2023/12/09 01:14:32;;;;;;;;;;;;;;;;;;5053624;28;19928;-71
2023/12/09 01:16:57;;;;;;;;;;;;;;;;;;5065192;28;21450;-71
2023/12/09 01:19:23;;;;;;;;;;;;;;;;;;5063336;28;20439;-71
2023/12/09 01:21:49;;;;;;;;;;;;;;;;;;5050943;28;20048;-71
2023/12/09 01:24:16;;;;;;;;;;;;;;;;;;5066284;28;19936;-71
2023/12/09 01:26:42;;;;;;;;;;;;;;;;;;5083395;28;19932;-71
2023/12/09 01:29:11;;;;;;;;;;;;;;;;;;5051102;28;20373;-71
2023/12/09 01:31:37;;;;;;;;;;;;;;;;;;5081419;28;19928;-71
2023/12/09 01:34:03;;;;;;;;;;;;;;;;;;5081519;28;19928;-71
2023/12/09 01:36:28;;;;;;;;;;;;;;;;;;5062111;28;20017;-71
2023/12/09 01:38:54;;;;;;;;;;;;;;;;;;5072200;28;19927;-71
2023/12/09 01:41:20;;;;;;;;;;;;;;;;;;5056483;28;19924;-71
2023/12/09 01:43:46;;;;;;;;;;;;;;;;;;5069985;28;19924;-71
2023/12/09 01:46:12;;;;;;;;;;;;;;;;;;5053781;28;20049;-71
2023/12/09 01:48:38;;;;;;;;;;;;;;;;;;5069062;28;19970;-71
2023/12/09 01:51:04;;;;;;;;;;;;;;;;;;5088520;28;20395;-71
2023/12/09 01:53:30;;;;;;;;;;;;;;;;;;5068144;28;19963;-71
2023/12/09 01:55:56;;;;;;;;;;;;;;;;;;5060699;28;20007;-70
2023/12/09 01:58:22;;;;;;;;;;;;;;;;;;5067757;28;19920;-70
2023/12/09 02:00:51;;;;;;;;;;;;;;;;;;5072571;28;20342;-72
2023/12/09 02:03:18;;;;;;;;;;;;;;;;;;5050472;28;20018;-70
2023/12/09 02:05:44;;;;;;;;;;;;;;;;;;5063086;28;19935;-69
2023/12/09 02:08:10;;;;;;;;;;;;;;;;;;5072727;28;19924;-71
2023/12/09 02:10:36;;;;;;;;;;;;;;;;;;5068075;28;19927;-71
2023/12/09 02:13:02;;;;;;;;;;;;;;;;;;5057646;28;19924;-71
2023/12/09 02:15:28;;;;;;;;;;;;;;;;;;5062864;28;19969;-72
2023/12/09 02:17:54;;;;;;;;;;;;;;;;;;5067235;28;19935;-71
2023/12/09 02:20:20;;;;;;;;;;;;;;;;;;5047033;28;19965;-71
2023/12/09 02:22:46;;;;;;;;;;;;;;;;;;5065448;28;19927;-71
2023/12/09 02:25:11;;;;;;;;;;;;;;;;;;5067033;28;19928;-70
2023/12/09 02:27:37;;;;;;;;;;;;;;;;;;5062720;28;19932;-70
2023/12/09 02:30:03;;;;;;;;;;;;;;;;;;5061781;28;19920;-71
2023/12/09 02:32:30;;;;;;;;;;;;;;;;;;5074823;28;19999;-71
2023/12/09 02:34:56;;;;;;;;;;;;;;;;;;5076372;28;19920;-71
2023/12/09 02:37:22;;;;;;;;;;;;;;;;;;5062671;28;19969;-71
2023/12/09 02:39:48;;;;;;;;;;;;;;;;;;5077397;28;19928;-71
2023/12/09 02:42:14;;;;;;;;;;;;;;;;;;5057283;28;19928;-71
2023/12/09 02:44:41;;;;;;;;;;;;;;;;;;5098278;28;19969;-71
2023/12/09 02:47:07;;;;;;;;;;;;;;;;;;5084688;28;19933;-71
2023/12/09 02:49:33;;;;;;;;;;;;;;;;;;5054731;28;19920;-71
2023/12/09 02:51:59;;;;;;;;;;;;;;;;;;5084907;28;19920;-70
2023/12/09 02:54:25;;;;;;;;;;;;;;;;;;5064437;28;20300;-71
2023/12/09 02:56:51;;;;;;;;;;;;;;;;;;5065445;28;19934;-70
2023/12/09 02:59:17;;;;;;;;;;;;;;;;;;5068057;28;19924;-71
2023/12/09 03:01:42;;;;;;;;;;;;;;;;;;5061814;28;20003;-71
2023/12/09 03:04:08;;;;;;;;;;;;;;;;;;5075009;28;19932;-71
2023/12/09 03:06:34;;;;;;;;;;;;;;;;;;5063703;28;20445;-71
2023/12/09 03:09:00;;;;;;;;;;;;;;;;;;5057366;28;20018;-71
2023/12/09 03:11:26;;;;;;;;;;;;;;;;;;5069685;28;19920;-71
2023/12/09 03:13:52;;;;;;;;;;;;;;;;;;5081995;28;19924;-70
2023/12/09 03:16:18;;;;;;;;;;;;;;;;;;5083369;28;19924;-70
2023/12/09 03:18:44;;;;;;;;;;;;;;;;;;5068313;28;19924;-70
2023/12/09 03:21:10;;;;;;;;;;;;;;;;;;5071341;28;20369;-70
2023/12/09 03:23:36;;;;;;;;;;;;;;;;;;5073922;28;19920;-71
2023/12/09 03:26:01;;;;;;;;;;;;;;;;;;5074665;28;19932;-71
2023/12/09 03:28:27;;;;;;;;;;;;;;;;;;5066995;28;19920;-71
2023/12/09 03:30:53;;;;;;;;;;;;;;;;;;5063054;28;19928;-71
2023/12/09 03:33:19;;;;;;;;;;;;;;;;;;5065363;28;20303;-71
2023/12/09 03:35:45;;;;;;;;;;;;;;;;;;5085281;28;20345;-70
2023/12/09 03:38:11;;;;;;;;;;;;;;;;;;5055935;28;19920;-71
2023/12/09 03:40:37;;;;;;;;;;;;;;;;;;5082548;28;19920;-71
2023/12/09 03:43:03;;;;;;;;;;;;;;;;;;5083350;28;20108;-70
2023/12/09 03:45:29;;;;;;;;;;;;;;;;;;5061222;28;20594;-71
2023/12/09 03:47:55;;;;;;;;;;;;;;;;;;5062009;28;19921;-71
2023/12/09 03:50:21;;;;;;;;;;;;;;;;;;5067385;28;19928;-71
2023/12/09 03:52:46;;;;;;;;;;;;;;;;;;5061236;28;20655;-71
2023/12/09 03:55:12;;;;;;;;;;;;;;;;;;5059885;28;19924;-71
2023/12/09 03:57:38;;;;;;;;;;;;;;;;;;5061882;28;19963;-71
2023/12/09 04:00:05;;;;;;;;;;;;;;;;;;5067260;28;19963;-71
2023/12/09 04:02:31;;;;;;;;;;;;;;;;;;5061780;28;19927;-71
2023/12/09 04:04:57;;;;;;;;;;;;;;;;;;5069578;28;19973;-71
2023/12/09 04:07:23;;;;;;;;;;;;;;;;;;5061229;28;20034;-70
2023/12/09 04:09:49;;;;;;;;;;;;;;;;;;5057604;28;20484;-70
2023/12/09 04:12:15;;;;;;;;;;;;;;;;;;5058732;28;20469;-67
2023/12/09 04:14:41;;;;;;;;;;;;;;;;;;5071146;28;20002;-70
2023/12/09 04:17:07;;;;;;;;;;;;;;;;;;5068356;28;20533;-71
2023/12/09 04:19:32;;;;;;;;;;;;;;;;;;5069921;28;19924;-71
2023/12/09 04:21:58;;;;;;;;;;;;;;;;;;5071152;28;19977;-71
2023/12/09 04:24:24;;;;;;;;;;;;;;;;;;5088511;28;19969;-70
2023/12/09 04:26:51;;;;;;;;;;;;;;;;;;5068692;28;19932;-70
2023/12/09 04:29:17;;;;;;;;;;;;;;;;;;5066854;28;19928;-71
2023/12/09 04:31:43;;;;;;;;;;;;;;;;;;5068907;28;19927;-72
2023/12/09 04:34:10;;;;;;;;;;;;;;;;;;5071012;28;20011;-70
2023/12/09 04:36:36;;;;;;;;;;;;;;;;;;5100210;28;19921;-70
2023/12/09 04:39:01;;;;;;;;;;;;;;;;;;5069880;28;19927;-70
2023/12/09 04:41:27;;;;;;;;;;;;;;;;;;5067166;28;19920;-70
2023/12/09 04:43:53;;;;;;;;;;;;;;;;;;5083437;28;19934;-71
2023/12/09 04:46:20;;;;;;;;;;;;;;;;;;5063424;28;19920;-70
2023/12/09 04:48:45;;;;;;;;;;;;;;;;;;5069841;28;19927;-70
2023/12/09 04:51:11;;;;;;;;;;;;;;;;;;5065610;28;20353;-71
2023/12/09 04:53:37;;;;;;;;;;;;;;;;;;5064899;28;19932;-70
2023/12/09 04:56:03;;;;;;;;;;;;;;;;;;5060524;28;19989;-70
2023/12/09 04:58:29;;;;;;;;;;;;;;;;;;5057828;28;19982;-71
2023/12/09 05:00:55;;;;;;;;;;;;;;;;;;5070404;28;20458;-71
2023/12/09 05:03:21;;;;;;;;;;;;;;;;;;5094856;28;19931;-71
2023/12/09 05:05:47;;;;;;;;;;;;;;;;;;5094487;28;19924;-71
2023/12/09 05:08:13;;;;;;;;;;;;;;;;;;5057593;28;19920;-71
2023/12/09 05:10:39;;;;;;;;;;;;;;;;;;5067060;28;20898;-71
2023/12/09 05:13:05;;;;;;;;;;;;;;;;;;5087871;28;19978;-71
2023/12/09 05:15:30;;;;;;;;;;;;;;;;;;5086432;28;19920;-71
2023/12/09 05:17:56;;;;;;;;;;;;;;;;;;5067348;28;19974;-71
2023/12/09 05:20:22;;;;;;;;;;;;;;;;;;5064883;28;19929;-70
2023/12/09 05:22:48;;;;;;;;;;;;;;;;;;5070476;28;19996;-71
2023/12/09 05:25:14;;;;;;;;;;;;;;;;;;5077626;22;19949;-68
2023/12/09 05:27:40;;;;;;;;;;;;;;;;;;5106763;27;19923;-68
2023/12/09 05:30:06;;;;;;;;;;;;;;;;;;5111443;27;19947;-68
2023/12/09 05:32:32;;;;;;;;;;;;;;;;;;5117933;27;19924;-68
2023/12/09 05:34:58;;;;;;;;;;;;;;;;;;5100128;28;19920;-68
2023/12/09 05:37:24;;;;;;;;;;;;;;;;;;5118033;27;19920;-68
2023/12/09 05:39:50;;;;;;;;;;;;;;;;;;5110248;27;19946;-69
2023/12/09 05:42:16;;;;;;;;;;;;;;;;;;5103037;27;19928;-69
2023/12/09 05:44:41;;;;;;;;;;;;;;;;;;5098358;27;19924;-69
2023/12/09 05:47:07;;;;;;;;;;;;;;;;;;5099274;27;20340;-69
2023/12/09 05:49:33;;;;;;;;;;;;;;;;;;5105615;27;19958;-69
2023/12/09 05:51:59;;;;;;;;;;;;;;;;;;5112378;27;19963;-69
2023/12/09 05:54:25;;;;;;;;;;;;;;;;;;5114114;27;19971;-69
2023/12/09 05:56:51;;;;;;;;;;;;;;;;;;5107643;27;20013;-69
2023/12/09 05:59:17;;;;;;;;;;;;;;;;;;5107317;27;20018;-69
2023/12/09 06:01:43;;;;;;;;;;;;;;;;;;5095998;27;20010;-69
2023/12/09 06:04:09;;;;;;;;;;;;;;;;;;5111915;27;19923;-69
2023/12/09 06:06:35;;;;;;;;;;;;;;;;;;5110839;27;20253;-69
2023/12/09 06:09:01;;;;;;;;;;;;;;;;;;5107471;27;20056;-69
2023/12/09 06:11:27;;;;;;;;;;;;;;;;;;5105958;27;20002;-70
2023/12/09 06:13:53;;;;;;;;;;;;;;;;;;5103444;27;19919;-69
2023/12/09 06:16:19;;;;;;;;;;;;;;;;;;5108840;27;19923;-69
2023/12/09 06:18:45;;;;;;;;;;;;;;;;;;5110541;27;20336;-69
2023/12/09 06:21:10;;;;;;;;;;;;;;;;;;5119810;27;20277;-69
2023/12/09 06:23:36;;;;;;;;;;;;;;;;;;5109208;27;19924;-69
2023/12/09 06:26:03;;;;;;;;;;;;;;;;;;5111846;27;19923;-69
2023/12/09 06:28:29;;;;;;;;;;;;;;;;;;5107872;27;19930;-70
2023/12/09 06:30:54;;;;;;;;;;;;;;;;;;5109033;27;19919;-70
2023/12/09 06:33:20;;;;;;;;;;;;;;;;;;5107418;27;19920;-70
2023/12/09 06:35:46;;;;;;;;;;;;;;;;;;5109714;27;20463;-70
2023/12/09 06:38:12;;;;;;;;;;;;;;;;;;5107834;27;20002;-70
2023/12/09 06:40:38;;;;;;;;;;;;;;;;;;5108201;27;20317;-69
2023/12/09 06:43:04;;;;;;;;;;;;;;;;;;5106424;27;19919;-69
2023/12/09 06:45:30;;;;;;;;;;;;;;;;;;5103687;28;19924;-69
2023/12/09 06:47:56;;;;;;;;;;;;;;;;;;5107094;27;19924;-69
2023/12/09 06:50:22;;;;;;;;;;;;;;;;;;5107893;28;19919;-68
2023/12/09 06:52:48;;;;;;;;;;;;;;;;;;5109021;27;19934;-69
2023/12/09 06:55:14;;;;;;;;;;;;;;;;;;5108996;28;19928;-69
2023/12/09 06:57:40;;;;;;;;;;;;;;;;;;5100631;27;19993;-69
2023/12/09 07:00:07;;;;;;;;;;;;;;;;;;5103142;28;20365;-69
2023/12/09 07:02:33;;;;;;;;;;;;;;;;;;5103912;28;19920;-70
2023/12/09 07:04:59;;;;;;;;;;;;;;;;;;5105679;27;19996;-68
2023/12/09 07:07:25;;;;;;;;;;;;;;;;;;5106842;28;19952;-69
2023/12/09 07:09:51;;;;;;;;;;;;;;;;;;5108703;27;20292;-69
2023/12/09 07:12:17;;;;;;;;;;;;;;;;;;5105624;28;19926;-69
2023/12/09 07:14:43;;;;;;;;;;;;;;;;;;5111434;28;19999;-69
2023/12/09 07:17:09;;;;;;;;;;;;;;;;;;5100921;28;20018;-68
2023/12/09 07:19:35;;;;;;;;;;;;;;;;;;5109595;28;19950;-69
2023/12/09 07:22:03;;;;;;;;;;;;;;;;;;5106779;28;19927;-69
2023/12/09 07:24:29;;;;;;;;;;;;;;;;;;5109453;28;19932;-69
2023/12/09 07:26:55;;;;;;;;;;;;;;;;;;5098734;28;19931;-69
2023/12/09 07:29:21;;;;;;;;;;;;;;;;;;5100674;28;19981;-69
2023/12/09 07:31:46;;;;;;;;;;;;;;;;;;5104333;28;19927;-69
2023/12/09 07:34:16;;;;;;;;;;;;;;;;;;5108472;28;20332;-69
2023/12/09 07:36:42;;;;;;;;;;;;;;;;;;5106724;28;19920;-69
2023/12/09 07:39:08;;;;;;;;;;;;;;;;;;5105703;28;20006;-68
2023/12/09 07:41:34;;;;;;;;;;;;;;;;;;5109192;28;19942;-69
2023/12/09 07:44:01;;;;;;;;;;;;;;;;;;5098385;28;20322;-69
2023/12/09 07:46:27;;;;;;;;;;;;;;;;;;5103485;28;20373;-69
2023/12/09 07:48:53;;;;;;;;;;;;;;;;;;5100230;28;19927;-69
2023/12/09 07:51:19;;;;;;;;;;;;;;;;;;5106117;27;20368;-69
2023/12/09 07:53:45;;;;;;;;;;;;;;;;;;5107913;27;19927;-70
2023/12/09 07:56:11;;;;;;;;;;;;;;;;;;5112619;27;19942;-69
2023/12/09 07:58:37;;;;;;;;;;;;;;;;;;5105144;28;19943;-69
2023/12/09 08:01:03;;;;;;;;;;;;;;;;;;5115677;27;20261;-69
2023/12/09 08:03:31;;;;;;;;;;;;;;;;;;5108433;27;19932;-69
2023/12/09 08:05:57;;;;;;;;;;;;;;;;;;5111641;28;19920;-68
2023/12/09 08:08:22;;;;;;;;;;;;;;;;;;5108028;28;19969;-68
2023/12/09 08:10:48;;;;;;;;;;;;;;;;;;5107498;28;20374;-68
2023/12/09 08:13:14;;;;;;;;;;;;;;;;;;5107163;28;20399;-70
2023/12/09 08:15:40;;;;;;;;;;;;;;;;;;5099130;28;19927;-70
2023/12/09 08:18:06;;;;;;;;;;;;;;;;;;5106603;28;19919;-70
2023/12/09 08:20:34;;;;;;;;;;;;;;;;;;5109108;27;19926;-69
2023/12/09 08:23:00;;;;;;;;;;;;;;;;;;5125258;27;20345;-69
2023/12/09 08:25:26;;;;;;;;;;;;;;;;;;5106867;28;19923;-68
2023/12/09 08:27:52;;;;;;;;;;;;;;;;;;5108150;27;19928;-69
2023/12/09 08:30:18;;;;;;;;;;;;;;;;;;5108993;27;19923;-68
2023/12/09 08:32:44;;;;;;;;;;;;;;;;;;5109672;27;19951;-68
2023/12/09 08:35:09;;;;;;;;;;;;;;;;;;5104933;27;20286;-71
2023/12/09 08:37:35;;;;;;;;;;;;;;;;;;5111702;27;19927;-68
2023/12/09 08:40:01;;;;;;;;;;;;;;;;;;5101184;28;19924;-68
2023/12/09 08:42:27;;;;;;;;;;;;;;;;;;5101499;27;19920;-67
2023/12/09 08:44:53;;;;;;;;;;;;;;;;;;5113873;27;19927;-69
2023/12/09 08:47:19;;;;;;;;;;;;;;;;;;5100199;27;19931;-69
2023/12/09 08:49:45;;;;;;;;;;;;;;;;;;5106343;27;19931;-69
2023/12/09 08:52:11;;;;;;;;;;;;;;;;;;5112737;27;19946;-69
2023/12/09 08:54:37;;;;;;;;;;;;;;;;;;5104066;27;19920;-69
2023/12/09 08:57:03;;;;;;;;;;;;;;;;;;5104079;28;20541;-69
2023/12/09 08:59:29;;;;;;;;;;;;;;;;;;5099286;27;19943;-69
2023/12/09 09:01:55;;;;;;;;;;;;;;;;;;5111785;27;20246;-68
2023/12/09 09:04:22;;;;;;;;;;;;;;;;;;5100178;28;19924;-68
2023/12/09 09:06:48;;;;;;;;;;;;;;;;;;5101697;28;19920;-67
2023/12/09 09:09:14;;;;;;;;;;;;;;;;;;5100506;28;19981;-67
2023/12/09 09:11:40;;;;;;;;;;;;;;;;;;5097662;28;19973;-67
2023/12/09 09:14:06;;;;;;;;;;;;;;;;;;5098911;28;19928;-66
2023/12/09 09:16:31;;;;;;;;;;;;;;;;;;5116026;27;19973;-67
2023/12/09 09:18:57;;;;;;;;;;;;;;;;;;5096155;28;19989;-68
2023/12/09 09:21:23;;;;;;;;;;;;;;;;;;5097712;28;20377;-67
2023/12/09 09:23:49;;;;;;;;;;;;;;;;;;5112049;27;19932;-66
2023/12/09 09:26:15;;;;;;;;;;;;;;;;;;5097788;28;19928;-67
2023/12/09 09:28:41;;;;;;;;;;;;;;;;;;5115328;27;19920;-67
2023/12/09 09:31:07;;;;;;;;;;;;;;;;;;5114931;27;20383;-74
2023/12/09 09:33:33;;;;;;;;;;;;;;;;;;5114411;27;20209;-67
2023/12/09 09:35:59;;;;;;;;;;;;;;;;;;5102669;27;19928;-67
2023/12/09 09:38:25;;;;;;;;;;;;;;;;;;5106631;27;19927;-67
2023/12/09 09:40:51;;;;;;;;;;;;;;;;;;5101490;27;20032;-67
2023/12/09 09:43:17;;;;;;;;;;;;;;;;;;5109989;27;19967;-68
2023/12/09 09:45:42;;;;;;;;;;;;;;;;;;5100772;27;20397;-66
2023/12/09 09:48:08;;;;;;;;;;;;;;;;;;5100594;27;19980;-67
2023/12/09 09:50:34;;;;;;;;;;;;;;;;;;5102798;27;19991;-67
2023/12/09 09:53:01;;;;;;;;;;;;;;;;;;5104408;27;19928;-67
2023/12/09 09:55:28;;;;;;;;;;;;;;;;;;5101413;27;20040;-67
2023/12/09 09:57:54;;;;;;;;;;;;;;;;;;5112757;27;19923;-67
2023/12/09 10:00:21;;;;;;;;;;;;;;;;;;5112572;27;19920;-67
2023/12/09 10:02:47;;;;;;;;;;;;;;;;;;5097274;27;20406;-67
2023/12/09 10:05:13;;;;;;;;;;;;;;;;;;5113914;27;19924;-67
2023/12/09 10:07:39;;;;;;;;;;;;;;;;;;5112995;27;20014;-66
2023/12/09 10:10:07;;;;;;;;;;;;;;;;;;5114009;27;20206;-67
2023/12/09 10:12:33;;;;;;;;;;;;;;;;;;5117024;27;20593;-68
2023/12/09 10:14:59;;;;;;;;;;;;;;;;;;5115201;27;19924;-67
2023/12/09 10:17:25;;;;;;;;;;;;;;;;;;5112693;27;20023;-67
2023/12/09 10:19:50;;;;;;;;;;;;;;;;;;5113616;27;19926;-67
2023/12/09 10:22:16;;;;;;;;;;;;;;;;;;5117049;27;20002;-67
2023/12/09 10:24:42;;;;;;;;;;;;;;;;;;5110769;27;19928;-67
2023/12/09 10:27:09;;;;;;;;;;;;;;;;;;5112678;27;19923;-68
2023/12/09 10:29:35;;;;;;;;;;;;;;;;;;5113729;27;20244;-67
2023/12/09 10:32:01;;;;;;;;;;;;;;;;;;5115144;27;20006;-68
2023/12/09 10:34:27;;;;;;;;;;;;;;;;;;5113566;27;20034;-68
2023/12/09 10:36:53;;;;;;;;;;;;;;;;;;5112728;27;20373;-67
2023/12/09 10:39:19;;;;;;;;;;;;;;;;;;5113748;27;19966;-67
2023/12/09 10:41:47;;;;;;;;;;;;;;;;;;5114617;27;19971;-67
2023/12/09 10:44:13;;;;;;;;;;;;;;;;;;5118732;27;20007;-67
2023/12/09 10:46:38;;;;;;;;;;;;;;;;;;5111493;27;20011;-68
2023/12/09 10:49:04;;;;;;;;;;;;;;;;;;5111482;27;20019;-68
2023/12/09 10:51:30;;;;;;;;;;;;;;;;;;5107579;27;19995;-66
2023/12/09 10:53:56;;;;;;;;;;;;;;;;;;5107392;28;19996;-66
2023/12/09 10:56:22;;;;;;;;;;;;;;;;;;5109683;28;19920;-66
2023/12/09 10:58:48;;;;;;;;;;;;;;;;;;5090834;28;19951;-66
2023/12/09 11:01:14;;;;;;;;;;;;;;;;;;5120447;27;20048;-66
2023/12/09 11:03:40;;;;;;;;;;;;;;;;;;5107944;28;20002;-66
2023/12/09 11:06:06;;;;;;;;;;;;;;;;;;5117480;27;19920;-65
2023/12/09 11:08:33;;;;;;;;;;;;;;;;;;5107924;28;19968;-66
2023/12/09 11:11:02;;;;;;;;;;;;;;;;;;5109211;28;19923;-66
2023/12/09 11:13:29;;;;;;;;;;;;;;;;;;5106404;28;19965;-65
2023/12/09 11:15:55;;;;;;;;;;;;;;;;;;5102958;28;19924;-65
2023/12/09 11:18:21;;;;;;;;;;;;;;;;;;5109163;28;19924;-66
2023/12/09 11:20:47;;;;;;;;;;;;;;;;;;5108534;28;20249;-65
2023/12/09 11:23:13;;;;;;;;;;;;;;;;;;5107945;27;19920;-66
2023/12/09 11:25:39;;;;;;;;;;;;;;;;;;5112204;28;19924;-66
2023/12/09 11:28:05;;;;;;;;;;;;;;;;;;5113494;28;19930;-66
2023/12/09 11:30:31;;;;;;;;;;;;;;;;;;5117076;27;21150;-66
2023/12/09 11:32:57;;;;;;;;;;;;;;;;;;5110410;28;19920;-66
2023/12/09 11:35:23;;;;;;;;;;;;;;;;;;5104855;28;19959;-67
2023/12/09 11:37:49;;;;;;;;;;;;;;;;;;5113143;28;19966;-66
2023/12/09 11:40:15;;;;;;;;;;;;;;;;;;5111780;28;20683;-66
2023/12/09 11:42:41;;;;;;;;;;;;;;;;;;5112239;28;19971;-64
2023/12/09 11:45:07;;;;;;;;;;;;;;;;;;5101442;27;20014;-65
2023/12/09 11:47:33;;;;;;;;;;;;;;;;;;5116193;27;20007;-65
2023/12/09 11:49:59;;;;;;;;;;;;;;;;;;5118390;27;20377;-65
2023/12/09 11:52:25;;;;;;;;;;;;;;;;;;5130937;27;20010;-65
2023/12/09 11:54:51;;;;;;;;;;;;;;;;;;5123048;27;19919;-65
2023/12/09 11:57:17;;;;;;;;;;;;;;;;;;5120464;27;20365;-65
2023/12/09 11:59:43;;;;;;;;;;;;;;;;;;5112749;27;20017;-66
2023/12/09 12:02:09;;;;;;;;;;;;;;;;;;5104519;28;20010;-66
2023/12/09 12:04:35;;;;;;;;;;;;;;;;;;5124973;27;20026;-65
2023/12/09 12:07:01;;;;;;;;;;;;;;;;;;5120723;27;20460;-66
2023/12/09 12:09:27;;;;;;;;;;;;;;;;;;5121284;27;19919;-66
2023/12/09 12:11:53;;;;;;;;;;;;;;;;;;5122133;27;19920;-66
2023/12/09 12:14:19;;;;;;;;;;;;;;;;;;5125003;27;19930;-66
2023/12/09 12:16:45;;;;;;;;;;;;;;;;;;5114386;28;19920;-66
2023/12/09 12:19:11;;;;;;;;;;;;;;;;;;5114861;28;19927;-65
2023/12/09 12:21:37;;;;;;;;;;;;;;;;;;5115999;27;19920;-65
2023/12/09 12:24:05;;;;;;;;;;;;;;;;;;5118359;27;20014;-65
2023/12/09 12:26:31;;;;;;;;;;;;;;;;;;5120097;27;19924;-66
2023/12/09 12:28:57;;;;;;;;;;;;;;;;;;5127836;27;19923;-65
2023/12/09 12:31:23;;;;;;;;;;;;;;;;;;5117393;27;20401;-66
2023/12/09 12:33:49;;;;;;;;;;;;;;;;;;5123270;27;20380;-66
2023/12/09 12:36:15;;;;;;;;;;;;;;;;;;5120877;27;19935;-65
2023/12/09 12:38:41;;;;;;;;;;;;;;;;;;5123607;27;20375;-65
2023/12/09 12:41:07;;;;;;;;;;;;;;;;;;5118854;27;19920;-65
2023/12/09 12:43:34;;;;;;;;;;;;;;;;;;5107925;28;19924;-65
2023/12/09 12:46:00;;;;;;;;;;;;;;;;;;5130713;27;19920;-65
2023/12/09 12:48:26;;;;;;;;;;;;;;;;;;5119401;27;19919;-65
2023/12/09 12:50:52;;;;;;;;;;;;;;;;;;5102030;28;20447;-65
2023/12/09 12:53:18;;;;;;;;;;;;;;;;;;5118479;27;20273;-66
2023/12/09 12:55:44;;;;;;;;;;;;;;;;;;5113917;27;19920;-65
2023/12/09 12:58:10;;;;;;;;;;;;;;;;;;5106497;27;19920;-66
2023/12/09 13:00:36;;;;;;;;;;;;;;;;;;5099258;28;19930;-66
2023/12/09 13:03:02;;;;;;;;;;;;;;;;;;5118700;27;20365;-66
2023/12/09 13:05:28;;;;;;;;;;;;;;;;;;5115757;27;20007;-66
2023/12/09 13:07:54;;;;;;;;;;;;;;;;;;5114779;27;20579;-66
2023/12/09 13:10:20;;;;;;;;;;;;;;;;;;5114910;27;19924;-66
2023/12/09 13:12:46;;;;;;;;;;;;;;;;;;5117453;27;19923;-66
2023/12/09 13:15:12;;;;;;;;;;;;;;;;;;5111764;27;20377;-66
2023/12/09 13:17:38;;;;;;;;;;;;;;;;;;5116540;27;19974;-66
2023/12/09 13:20:09;;;;;;;;;;;;;;;;;;5113588;27;19926;-66
2023/12/09 13:22:35;;;;;;;;;;;;;;;;;;5099240;27;20370;-66
2023/12/09 13:25:03;;;;;;;;;;;;;;;;;;5115417;27;19927;-66
2023/12/09 13:27:29;;;;;;;;;;;;;;;;;;5111883;27;19923;-66
2023/12/09 13:29:55;;;;;;;;;;;;;;;;;;5112026;28;19924;-66
2023/12/09 13:32:21;;;;;;;;;;;;;;;;;;5111250;27;19920;-66
2023/12/09 13:34:47;;;;;;;;;;;;;;;;;;5112442;28;19920;-66
2023/12/09 13:37:13;;;;;;;;;;;;;;;;;;5116548;27;20276;-66
2023/12/09 13:39:39;;;;;;;;;;;;;;;;;;5110969;28;20379;-66
2023/12/09 13:42:05;;;;;;;;;;;;;;;;;;5123490;27;20408;-66
2023/12/09 13:44:31;;;;;;;;;;;;;;;;;;5112896;28;20014;-66
2023/12/09 13:46:57;;;;;;;;;;;;;;;;;;5130076;27;19959;-66
2023/12/09 13:49:23;;;;;;;;;;;;;;;;;;5120053;27;19978;-66
2023/12/09 13:51:49;;;;;;;;;;;;;;;;;;5126943;27;20044;-66
2023/12/09 13:54:22;;;;;;;;;;;;;;;;;;5118962;27;19963;-66
2023/12/09 13:56:48;;;;;;;;;;;;;;;;;;5114099;27;19920;-66
2023/12/09 13:59:14;;;;;;;;;;;;;;;;;;5115590;27;19999;-66
2023/12/09 14:01:40;;;;;;;;;;;;;;;;;;5113824;27;19967;-66
2023/12/09 14:04:06;;;;;;;;;;;;;;;;;;5114129;27;19943;-66
2023/12/09 14:06:32;;;;;;;;;;;;;;;;;;5123194;27;20361;-66
2023/12/09 14:08:58;;;;;;;;;;;;;;;;;;5115112;27;19975;-66
2023/12/09 14:11:27;;;;;;;;;;;;;;;;;;5117341;27;19924;-66
2023/12/09 14:13:54;;;;;;;;;;;;;;;;;;5123460;27;19924;-66
2023/12/09 14:16:20;;;;;;;;;;;;;;;;;;5113194;27;20128;-66
2023/12/09 14:18:46;;;;;;;;;;;;;;;;;;5112808;28;20066;-66
2023/12/09 14:21:12;;;;;;;;;;;;;;;;;;5125995;27;19920;-66
2023/12/09 14:23:38;;;;;;;;;;;;;;;;;;5129013;27;19935;-66
2023/12/09 14:26:04;;;;;;;;;;;;;;;;;;5129399;27;19931;-66
2023/12/09 14:28:30;;;;;;;;;;;;;;;;;;5128300;27;19931;-66
2023/12/09 14:30:56;;;;;;;;;;;;;;;;;;5109743;28;20007;-65
2023/12/09 14:33:22;;;;;;;;;;;;;;;;;;5120209;27;19924;-65
2023/12/09 14:35:48;;;;;;;;;;;;;;;;;;5116114;27;19919;-66
2023/12/09 14:38:14;;;;;;;;;;;;;;;;;;5128527;27;19927;-65
2023/12/09 14:40:40;;;;;;;;;;;;;;;;;;5109632;27;19923;-66
2023/12/09 14:43:09;;;;;;;;;;;;;;;;;;5122321;27;19970;-66
2023/12/09 14:45:35;;;;;;;;;;;;;;;;;;5112033;28;19928;-65
2023/12/09 14:48:01;;;;;;;;;;;;;;;;;;5109367;28;20039;-65
2023/12/09 14:50:27;;;;;;;;;;;;;;;;;;5122429;27;19920;-65
2023/12/09 14:52:53;;;;;;;;;;;;;;;;;;5122572;27;19919;-65
2023/12/09 14:55:20;;;;;;;;;;;;;;;;;;5104789;27;19935;-65
2023/12/09 14:57:46;;;;;;;;;;;;;;;;;;5116975;27;20022;-66
2023/12/09 15:00:12;;;;;;;;;;;;;;;;;;5126868;27;20018;-66
2023/12/09 15:02:38;;;;;;;;;;;;;;;;;;5121856;27;19923;-65
2023/12/09 15:05:04;;;;;;;;;;;;;;;;;;5113712;27;20276;-66
2023/12/09 15:07:31;;;;;;;;;;;;;;;;;;5113386;27;19931;-66
2023/12/09 15:09:57;;;;;;;;;;;;;;;;;;5105105;28;19928;-66
2023/12/09 15:12:23;;;;;;;;;;;;;;;;;;5113846;28;20292;-65
2023/12/09 15:14:50;;;;;;;;;;;;;;;;;;5125189;28;20333;-65
2023/12/09 15:17:16;;;;;;;;;;;;;;;;;;5113070;28;19920;-65
2023/12/09 15:19:42;;;;;;;;;;;;;;;;;;5125826;27;19969;-64
2023/12/09 15:22:08;;;;;;;;;;;;;;;;;;5125370;27;19998;-64
2023/12/09 15:24:34;;;;;;;;;;;;;;;;;;5115548;27;19924;-65
2023/12/09 15:27:00;;;;;;;;;;;;;;;;;;5112675;28;19923;-64
2023/12/09 15:29:26;;;;;;;;;;;;;;;;;;5133870;27;19963;-64
2023/12/09 15:31:52;;;;;;;;;;;;;;;;;;5121766;27;19941;-65
2023/12/09 15:34:18;;;;;;;;;;;;;;;;;;5130248;27;20384;-64
2023/12/09 15:36:44;;;;;;;;;;;;;;;;;;5112850;28;19959;-64
2023/12/09 15:39:09;;;;;;;;;;;;;;;;;;5126904;28;19919;-64
2023/12/09 15:41:35;;;;;;;;;;;;;;;;;;5113570;28;19923;-63
2023/12/09 15:44:02;;;;;;;;;;;;;;;;;;5128658;28;19924;-64
2023/12/09 15:46:29;;;;;;;;;;;;;;;;;;5107748;28;19920;-64
2023/12/09 15:48:55;;;;;;;;;;;;;;;;;;5100955;28;20007;-64
2023/12/09 15:51:21;;;;;;;;;;;;;;;;;;5126293;27;20007;-64
2023/12/09 15:53:47;;;;;;;;;;;;;;;;;;5096806;28;19927;-64
2023/12/09 15:56:13;;;;;;;;;;;;;;;;;;5121379;28;19920;-63
2023/12/09 15:58:39;;;;;;;;;;;;;;;;;;5125075;28;20411;-64
2023/12/09 16:01:05;;;;;;;;;;;;;;;;;;5113356;28;19920;-64
2023/12/09 16:03:31;;;;;;;;;;;;;;;;;;5126790;28;19920;-64
2023/12/09 16:05:57;;;;;;;;;;;;;;;;;;5101209;28;20432;-64
2023/12/09 16:08:24;;;;;;;;;;;;;;;;;;5106465;28;20265;-63
2023/12/09 16:10:50;;;;;;;;;;;;;;;;;;5116431;27;19920;-63
2023/12/09 16:13:16;;;;;;;;;;;;;;;;;;5114436;28;19927;-63
2023/12/09 16:15:42;;;;;;;;;;;;;;;;;;5115033;27;20262;-64
2023/12/09 16:18:10;;;;;;;;;;;;;;;;;;5135764;27;19927;-64
2023/12/09 16:20:35;;;;;;;;;;;;;;;;;;5117141;27;19927;-65
2023/12/09 16:23:01;;;;;;;;;;;;;;;;;;5114817;28;19976;-64
2023/12/09 16:25:27;;;;;;;;;;;;;;;;;;5116066;28;19924;-64
2023/12/09 16:27:55;;;;;;;;;;;;;;;;;;5116414;28;19920;-63
2023/12/09 16:30:21;;;;;;;;;;;;;;;;;;5116212;27;19980;-63
2023/12/09 16:32:49;;;;;;;;;;;;;;;;;;5115598;28;19920;-63
2023/12/09 16:35:15;;;;;;;;;;;;;;;;;;5118339;27;19924;-63
2023/12/09 16:37:41;;;;;;;;;;;;;;;;;;5106950;27;19980;-64